Time;durP1;ratioP1;P1;durP2;ratioP2;P2;SDS_P1;SDS_P2;PMS_P1;PMS_P2;Temp;Humidity;BMP_temperature;BMP_pressure;BME280_temperature;BME280_humidity;BME280_pressure;Samples;Min_cycle;Max_cycle;Signal;HPM_P1;HPM_P2
2023/01/31 00:01:19;;;;;;;78.18;42.70;;;5.20;99.90;;;;;;5055113;28;20025;-89
2023/01/31 00:03:47;;;;;;;71.88;39.42;;;4.90;99.90;;;;;;5055124;28;20029;-88
2023/01/31 00:06:17;;;;;;;30.52;19.02;;;5.10;99.90;;;;;;5054259;28;20033;-89
2023/01/31 00:08:43;;;;;;;37.50;22.70;;;5.10;99.90;;;;;;5055105;28;20097;-88
2023/01/31 00:11:10;;;;;;;16.17;11.52;;;4.90;99.90;;;;;;5054546;28;20036;-89
2023/01/31 00:13:35;;;;;;;17.13;11.55;;;4.90;99.90;;;;;;5036677;28;20029;-88
2023/01/31 00:16:01;;;;;;;25.65;16.70;;;5.00;99.90;;;;;;5054357;28;20111;-89
2023/01/31 00:18:27;;;;;;;50.95;30.52;;;5.30;99.90;;;;;;5036836;28;20064;-88
2023/01/31 00:20:53;;;;;;;23.52;16.35;;;4.90;99.90;;;;;;5036278;28;20029;-89
2023/01/31 00:23:18;;;;;;;14.00;10.15;;;5.10;99.90;;;;;;5054523;28;20116;-88
2023/01/31 00:25:45;;;;;;;14.00;10.13;;;4.90;99.90;;;;;;5036613;28;20032;-89
2023/01/31 00:28:11;;;;;;;21.80;14.85;;;5.00;99.90;;;;;;5036508;28;20112;-88
2023/01/31 00:30:36;;;;;;;33.13;22.50;;;5.60;99.90;;;;;;5054694;28;20560;-87
2023/01/31 00:33:02;;;;;;;37.22;24.15;;;5.00;99.90;;;;;;5054002;28;20049;-88
2023/01/31 00:35:27;;;;;;;29.30;20.15;;;4.90;99.90;;;;;;5053757;28;20028;-88
2023/01/31 00:37:53;;;;;;;24.30;16.00;;;5.20;99.90;;;;;;5054546;28;20021;-89
2023/01/31 00:40:19;;;;;;;50.80;33.17;;;5.10;99.90;;;;;;5036509;28;20040;-88
2023/01/31 00:42:45;;;;;;;18.45;11.88;;;5.10;99.90;;;;;;5036208;28;20021;-89
2023/01/31 00:45:11;;;;;;;18.40;13.20;;;4.90;99.90;;;;;;5053946;28;20405;-88
2023/01/31 00:47:37;;;;;;;19.38;13.40;;;5.00;99.90;;;;;;5054204;28;20025;-89
2023/01/31 00:50:04;;;;;;;16.40;11.32;;;5.30;99.90;;;;;;5035639;28;20028;-88
2023/01/31 00:52:29;;;;;;;40.78;28.05;;;4.90;99.90;;;;;;5036129;28;20504;-88
2023/01/31 00:54:55;;;;;;;50.25;33.30;;;5.10;99.90;;;;;;5035659;28;20028;-88
2023/01/31 00:57:21;;;;;;;21.55;15.50;;;4.80;99.90;;;;;;5035936;28;20032;-88
2023/01/31 00:59:47;;;;;;;58.78;39.45;;;5.30;99.90;;;;;;5053897;28;20028;-88
2023/01/31 01:02:12;;;;;;;44.10;26.45;;;5.00;99.90;;;;;;5054062;28;20036;-88
2023/01/31 01:04:38;;;;;;;40.60;27.08;;;5.00;99.90;;;;;;5035378;28;20385;-87
2023/01/31 01:07:03;;;;;;;27.35;19.30;;;5.10;99.90;;;;;;5053597;28;20021;-89
2023/01/31 01:09:29;;;;;;;57.28;37.50;;;5.30;99.90;;;;;;5053591;28;20044;-88
2023/01/31 01:11:55;;;;;;;15.75;10.85;;;4.90;99.90;;;;;;5053641;28;20069;-87
2023/01/31 01:14:20;;;;;;;18.25;13.18;;;4.90;99.90;;;;;;5053473;28;20104;-88
2023/01/31 01:16:46;;;;;;;19.48;15.15;;;5.00;99.90;;;;;;5045036;28;20471;-89
2023/01/31 01:19:15;;;;;;;21.20;14.95;;;4.80;99.90;;;;;;5052901;28;20079;-88
2023/01/31 01:21:43;;;;;;;13.43;9.50;;;5.00;99.90;;;;;;5053269;28;20132;-88
2023/01/31 01:24:14;;;;;;;14.80;11.27;;;5.00;99.90;;;;;;5053300;28;20033;-88
2023/01/31 01:26:40;;;;;;;13.68;10.10;;;5.10;99.90;;;;;;5053286;28;20029;-88
2023/01/31 01:29:06;;;;;;;12.40;9.60;;;4.90;99.90;;;;;;5053443;28;20064;-88
2023/01/31 01:31:31;;;;;;;12.93;8.93;;;5.20;99.90;;;;;;5052890;28;20066;-87
2023/01/31 01:34:00;;;;;;;19.63;14.98;;;5.00;99.90;;;;;;5052702;28;20184;-88
2023/01/31 01:36:26;;;;;;;14.23;10.68;;;5.10;99.90;;;;;;5053048;28;20500;-89
2023/01/31 01:38:52;;;;;;;22.63;15.40;;;4.80;99.90;;;;;;5035277;28;20493;-88
2023/01/31 01:41:18;;;;;;;27.02;19.33;;;5.10;99.90;;;;;;5052973;28;20048;-89
2023/01/31 01:43:57;;;;;;;18.80;12.95;;;5.10;99.90;;;;;;5053003;28;20029;-88
2023/01/31 01:46:34;;;;;;;14.20;9.82;;;4.80;99.90;;;;;;5052369;28;20107;-89
2023/01/31 01:49:10;;;;;;;14.27;10.38;;;4.90;99.90;;;;;;5052713;28;20093;-88
2023/01/31 01:51:37;;;;;;;15.68;11.35;;;4.90;99.90;;;;;;5051508;28;20086;-89
2023/01/31 01:54:08;;;;;;;13.30;9.68;;;5.10;99.90;;;;;;5052699;28;20020;-88
2023/01/31 01:56:37;;;;;;;16.25;11.48;;;4.70;99.90;;;;;;5053068;28;20025;-88
2023/01/31 01:59:11;;;;;;;14.77;11.30;;;5.30;99.90;;;;;;5052633;28;20036;-88
2023/01/31 02:01:38;;;;;;;16.15;12.38;;;4.90;99.90;;;;;;5052239;28;20029;-88
2023/01/31 02:04:11;;;;;;;18.55;13.75;;;4.80;99.90;;;;;;5052695;28;20493;-89
2023/01/31 02:06:37;;;;;;;13.23;9.45;;;5.10;99.90;;;;;;5034779;28;20401;-88
2023/01/31 02:09:06;;;;;;;14.93;9.57;;;5.30;99.90;;;;;;5052761;28;20036;-88
2023/01/31 02:11:32;;;;;;;13.70;9.80;;;5.10;99.90;;;;;;5052143;28;20037;-88
2023/01/31 02:14:07;;;;;;;13.65;9.05;;;5.00;99.90;;;;;;5034655;28;20496;-88
2023/01/31 02:16:34;;;;;;;13.73;9.25;;;5.10;99.90;;;;;;5051893;28;20051;-88
2023/01/31 02:19:00;;;;;;;13.43;9.35;;;5.20;99.90;;;;;;5052734;28;20025;-89
2023/01/31 02:21:50;;;;;;;14.32;10.23;;;5.10;99.90;;;;;;5052314;28;20048;-88
2023/01/31 02:24:37;;;;;;;13.43;10.07;;;4.90;99.90;;;;;;5052514;28;20478;-88
2023/01/31 02:27:05;;;;;;;13.93;10.57;;;5.10;99.90;;;;;;5052654;28;20029;-88
2023/01/31 02:29:52;;;;;;;16.58;11.23;;;5.20;99.90;;;;;;5034529;28;20025;-88
2023/01/31 02:32:32;;;;;;;13.85;9.68;;;5.10;99.90;;;;;;5051680;28;20135;-89
2023/01/31 02:35:05;;;;;;;14.55;11.18;;;5.00;99.90;;;;;;5052128;28;20035;-87
2023/01/31 02:37:34;;;;;;;14.15;10.35;;;5.10;99.90;;;;;;5052226;28;20039;-88
2023/01/31 02:40:36;;;;;;;19.10;13.18;;;5.20;99.90;;;;;;5052460;28;20028;-88
2023/01/31 02:43:19;;;;;;;15.32;10.82;;;5.00;99.90;;;;;;5052633;28;20437;-88
2023/01/31 02:45:56;;;;;;;16.20;11.70;;;5.10;99.90;;;;;;5052123;28;20029;-88
2023/01/31 02:48:40;;;;;;;13.88;10.73;;;5.00;99.90;;;;;;5052428;28;20025;-88
2023/01/31 02:51:26;;;;;;;15.43;11.57;;;5.10;99.90;;;;;;5052522;28;20163;-88
2023/01/31 02:54:12;;;;;;;17.33;13.20;;;5.20;99.90;;;;;;5034118;28;20084;-88
2023/01/31 02:56:41;;;;;;;13.95;9.73;;;5.00;99.90;;;;;;5052490;28;20029;-88
2023/01/31 02:59:18;;;;;;;14.57;10.55;;;5.00;99.90;;;;;;5038155;28;20028;-88
2023/01/31 03:01:47;;;;;;;16.20;12.05;;;5.10;99.90;;;;;;5056126;28;20043;-88
2023/01/31 03:04:13;;;;;;;16.45;11.55;;;5.20;99.90;;;;;;5056283;28;20064;-89
2023/01/31 03:06:53;;;;;;;15.07;10.50;;;5.30;99.90;;;;;;5038203;28;20028;-88
2023/01/31 03:09:36;;;;;;;14.73;10.38;;;5.00;99.90;;;;;;5056047;28;20405;-88
2023/01/31 03:12:07;;;;;;;13.60;10.52;;;5.00;99.90;;;;;;5055839;28;20041;-89
2023/01/31 03:14:43;;;;;;;14.65;10.55;;;5.20;99.90;;;;;;5055550;28;20036;-89
2023/01/31 03:17:35;;;;;;;14.38;10.00;;;5.00;99.90;;;;;;5055601;28;20033;-88
2023/01/31 03:20:19;;;;;;;14.10;10.23;;;5.00;99.90;;;;;;5055449;28;20107;-88
2023/01/31 03:22:49;;;;;;;14.02;10.00;;;5.10;99.90;;;;;;5055892;28;20496;-88
2023/01/31 03:25:20;;;;;;;17.35;14.27;;;4.90;99.90;;;;;;5055710;28;20029;-89
2023/01/31 03:27:51;;;;;;;15.63;10.50;;;5.00;99.90;;;;;;5055532;28;20429;-88
2023/01/31 03:30:22;;;;;;;13.38;9.48;;;5.10;99.90;;;;;;5055415;28;20036;-88
2023/01/31 03:32:54;;;;;;;14.73;11.00;;;4.90;99.90;;;;;;5037338;28;20048;-88
2023/01/31 03:35:24;;;;;;;16.35;11.20;;;5.30;99.90;;;;;;5037658;28;20042;-88
2023/01/31 03:38:14;;;;;;;16.20;11.90;;;5.10;99.90;;;;;;5055218;28;20495;-88
2023/01/31 03:40:53;;;;;;;17.90;12.23;;;4.90;99.90;;;;;;5055400;28;20017;-89
2023/01/31 03:43:30;;;;;;;15.73;11.43;;;4.80;99.90;;;;;;5055233;28;20061;-88
2023/01/31 03:46:44;;;;;;;15.82;11.18;;;5.00;99.90;;;;;;5055209;28;20090;-87
2023/01/31 03:49:14;;;;;;;14.70;10.20;;;4.90;99.90;;;;;;5049696;28;20052;-88
2023/01/31 03:51:47;;;;;;;14.43;10.70;;;5.30;99.90;;;;;;5036982;28;20029;-88
2023/01/31 03:54:20;;;;;;;14.70;10.57;;;5.20;99.90;;;;;;5055066;28;20025;-88
2023/01/31 03:57:05;;;;;;;14.40;10.48;;;5.30;99.90;;;;;;5054864;28;20140;-88
2023/01/31 03:59:36;;;;;;;13.52;9.85;;;5.00;99.90;;;;;;5054348;28;20032;-88
2023/01/31 04:02:06;;;;;;;15.50;10.55;;;4.90;99.90;;;;;;5054930;28;20025;-88
2023/01/31 04:04:49;;;;;;;16.20;10.98;;;4.80;99.90;;;;;;5054950;28;20083;-88
2023/01/31 04:07:16;;;;;;;14.55;10.77;;;4.90;99.90;;;;;;5054183;28;20108;-88
2023/01/31 04:09:42;;;;;;;13.65;10.73;;;5.10;99.90;;;;;;5054563;28;20051;-88
2023/01/31 04:12:12;;;;;;;16.27;10.40;;;5.10;99.90;;;;;;5054378;28;20040;-89
2023/01/31 04:14:38;;;;;;;13.90;10.02;;;5.00;99.90;;;;;;5054959;28;20052;-88
2023/01/31 04:17:03;;;;;;;15.63;10.48;;;5.10;99.90;;;;;;5036231;28;20075;-88
2023/01/31 04:19:29;;;;;;;14.45;10.30;;;4.90;99.90;;;;;;5055035;28;20082;-88
2023/01/31 04:21:55;;;;;;;17.08;11.13;;;5.10;99.90;;;;;;5054616;28;20651;-88
2023/01/31 04:24:20;;;;;;;17.85;11.85;;;5.20;99.90;;;;;;5054757;28;20373;-87
2023/01/31 04:26:47;;;;;;;17.02;11.63;;;5.20;99.90;;;;;;5054028;28;20052;-88
2023/01/31 04:29:12;;;;;;;14.95;11.10;;;5.20;99.90;;;;;;5036645;28;20075;-88
2023/01/31 04:31:39;;;;;;;18.33;11.57;;;5.00;99.90;;;;;;5054256;28;20566;-88
2023/01/31 04:34:05;;;;;;;16.08;11.43;;;5.00;99.90;;;;;;5054180;28;20048;-88
2023/01/31 04:36:30;;;;;;;18.13;12.43;;;4.80;99.90;;;;;;5036078;28;20056;-87
2023/01/31 04:38:56;;;;;;;21.55;12.45;;;5.00;99.90;;;;;;5054579;28;20032;-88
2023/01/31 04:41:21;;;;;;;17.80;12.13;;;5.00;99.90;;;;;;5053752;28;20032;-88
2023/01/31 04:43:47;;;;;;;18.23;11.52;;;5.00;99.90;;;;;;5036380;28;20028;-89
2023/01/31 04:46:13;;;;;;;16.08;11.27;;;5.10;99.90;;;;;;5036120;28;20068;-88
2023/01/31 04:48:40;;;;;;;17.95;11.48;;;4.80;99.90;;;;;;5054215;28;20071;-88
2023/01/31 04:51:06;;;;;;;16.95;11.63;;;5.10;99.90;;;;;;5054148;28;20065;-88
2023/01/31 04:53:31;;;;;;;18.75;12.40;;;5.10;99.90;;;;;;5053796;28;20104;-89
2023/01/31 04:55:57;;;;;;;18.25;11.65;;;5.00;99.90;;;;;;5053358;28;20059;-89
2023/01/31 04:58:23;;;;;;;17.50;11.32;;;5.20;99.90;;;;;;5054088;28;20117;-89
2023/01/31 05:00:48;;;;;;;17.60;11.68;;;5.20;99.90;;;;;;5052608;28;20489;-88
2023/01/31 05:03:14;;;;;;;18.10;12.07;;;4.70;99.90;;;;;;5054198;28;20075;-88
2023/01/31 05:05:40;;;;;;;20.42;12.95;;;4.80;99.90;;;;;;5053738;28;20028;-88
2023/01/31 05:08:06;;;;;;;19.45;12.45;;;5.10;99.90;;;;;;5053696;28;20048;-88
2023/01/31 05:10:33;;;;;;;20.63;11.98;;;5.00;99.90;;;;;;5053106;28;20071;-89
2023/01/31 05:12:59;;;;;;;18.80;12.15;;;5.00;99.90;;;;;;5053818;28;20060;-88
2023/01/31 05:15:24;;;;;;;17.67;12.20;;;4.90;99.90;;;;;;5053578;28;20067;-88
2023/01/31 05:17:52;;;;;;;19.35;12.57;;;5.20;99.90;;;;;;5049072;28;20555;-88
2023/01/31 05:20:17;;;;;;;17.77;11.65;;;5.10;99.90;;;;;;5052862;28;20573;-89
2023/01/31 05:22:47;;;;;;;19.45;12.48;;;4.80;99.90;;;;;;5053655;28;20025;-88
2023/01/31 05:25:13;;;;;;;20.23;12.80;;;4.90;99.90;;;;;;5052878;28;20094;-88
2023/01/31 05:27:39;;;;;;;17.67;11.70;;;4.80;99.90;;;;;;5035374;28;20025;-87
2023/01/31 05:30:05;;;;;;;15.23;11.45;;;5.00;99.90;;;;;;5053185;28;20040;-89
2023/01/31 05:32:31;;;;;;;16.38;10.93;;;4.70;99.90;;;;;;5053230;28;20079;-89
2023/01/31 05:34:56;;;;;;;17.77;11.23;;;4.90;99.90;;;;;;5053611;28;20080;-88
2023/01/31 05:37:22;;;;;;;18.67;12.20;;;4.90;99.90;;;;;;5053254;28;20024;-88
2023/01/31 05:39:47;;;;;;;17.35;10.88;;;5.00;99.90;;;;;;5052738;28;20024;-88
2023/01/31 05:42:13;;;;;;;16.38;11.27;;;4.80;99.90;;;;;;5035306;28;20025;-88
2023/01/31 05:44:39;;;;;;;17.70;11.48;;;5.20;99.90;;;;;;5035336;28;20124;-88
2023/01/31 05:47:04;;;;;;;18.92;11.80;;;5.00;99.90;;;;;;5035489;28;20371;-88
2023/01/31 05:49:32;;;;;;;20.48;12.30;;;4.90;99.90;;;;;;5052928;28;20036;-88
2023/01/31 05:51:58;;;;;;;17.33;11.95;;;5.00;99.90;;;;;;5034830;28;20033;-88
2023/01/31 05:54:24;;;;;;;20.98;12.43;;;4.90;99.90;;;;;;5052423;28;20033;-89
2023/01/31 05:56:50;;;;;;;16.67;11.77;;;4.70;99.90;;;;;;5052886;28;20029;-88
2023/01/31 05:59:16;;;;;;;19.40;12.25;;;5.10;99.90;;;;;;5052755;28;20051;-88
2023/01/31 06:01:41;;;;;;;17.58;11.20;;;5.10;99.90;;;;;;5053023;28;20071;-88
2023/01/31 06:04:08;;;;;;;20.75;12.27;;;4.60;99.90;;;;;;5052971;28;20035;-88
2023/01/31 06:06:34;;;;;;;18.90;11.52;;;4.50;99.90;;;;;;5052493;28;20056;-88
2023/01/31 06:08:59;;;;;;;20.05;12.02;;;4.70;99.90;;;;;;5051948;28;20067;-88
2023/01/31 06:11:25;;;;;;;17.67;10.73;;;4.40;99.90;;;;;;5035082;28;20040;-88
2023/01/31 06:13:51;;;;;;;18.40;11.20;;;4.40;99.90;;;;;;5052730;28;20029;-88
2023/01/31 06:16:16;;;;;;;18.20;11.30;;;4.60;99.90;;;;;;5030378;28;20383;-89
2023/01/31 06:18:42;;;;;;;21.05;11.73;;;4.60;99.90;;;;;;5051406;28;20025;-90
2023/01/31 06:21:08;;;;;;;23.38;14.38;;;4.30;99.90;;;;;;5052214;28;20493;-88
2023/01/31 06:23:34;;;;;;;31.73;18.52;;;4.30;99.90;;;;;;5051844;28;20032;-89
2023/01/31 06:26:00;;;;;;;45.00;27.27;;;4.40;99.90;;;;;;5034283;28;20457;-89
2023/01/31 06:28:25;;;;;;;90.22;52.35;;;4.40;99.90;;;;;;5034572;28;20025;-89
2023/01/31 06:30:51;;;;;;;72.32;42.78;;;4.70;99.90;;;;;;5052137;28;20397;-89
2023/01/31 06:33:17;;;;;;;118.32;63.47;;;4.70;99.90;;;;;;5051822;28;20045;-88
2023/01/31 06:35:42;;;;;;;53.70;29.33;;;4.70;99.90;;;;;;5034375;28;20036;-91
2023/01/31 06:38:08;;;;;;;55.95;29.75;;;4.70;99.90;;;;;;5051847;28;20412;-90
2023/01/31 06:40:37;;;;;;;55.88;28.23;;;4.30;99.90;;;;;;5051991;28;20044;-90
2023/01/31 06:43:03;;;;;;;61.65;32.88;;;4.10;99.90;;;;;;5034742;28;20029;-96
2023/01/31 06:45:28;;;;;;;48.22;26.13;;;4.20;99.90;;;;;;5034443;28;20389;-89
2023/01/31 06:47:54;;;;;;;42.75;23.88;;;4.40;99.90;;;;;;5052089;28;20032;-93
2023/01/31 06:50:20;;;;;;;40.70;20.90;;;4.30;99.90;;;;;;5033981;28;20409;-89
2023/01/31 06:52:46;;;;;;;34.10;19.67;;;4.60;99.90;;;;;;5033037;28;20039;-90
2023/01/31 06:55:12;;;;;;;26.90;16.15;;;4.30;99.90;;;;;;5051949;28;20035;-89
2023/01/31 06:57:46;;;;;;;26.70;15.48;;;4.30;99.90;;;;;;5033579;28;20471;-89
2023/01/31 07:00:12;;;;;;;23.10;14.30;;;4.20;99.90;;;;;;5051330;28;20549;-89
2023/01/31 07:02:37;;;;;;;24.45;14.02;;;3.80;99.90;;;;;;5051716;28;20029;-88
2023/01/31 07:05:03;;;;;;;27.67;16.90;;;3.70;99.90;;;;;;5051991;28;20029;-89
2023/01/31 07:07:29;;;;;;;32.10;18.67;;;3.80;99.90;;;;;;5033687;28;20160;-88
2023/01/31 07:09:55;;;;;;;45.92;28.45;;;3.90;99.90;;;;;;5051383;28;20032;-89
2023/01/31 07:12:21;;;;;;;47.47;27.30;;;3.80;99.90;;;;;;5051589;28;20029;-89
2023/01/31 07:14:46;;;;;;;38.70;23.33;;;4.50;99.90;;;;;;5033739;28;20520;-89
2023/01/31 07:17:12;;;;;;;26.63;16.73;;;4.40;99.90;;;;;;5051326;28;20394;-89
2023/01/31 07:19:38;;;;;;;37.85;21.52;;;4.40;99.90;;;;;;5051925;28;20577;-88
2023/01/31 07:22:03;;;;;;;23.88;15.93;;;4.80;99.90;;;;;;5033626;28;20048;-89
2023/01/31 07:24:29;;;;;;;28.73;16.75;;;4.80;99.90;;;;;;5051838;28;20029;-89
2023/01/31 07:26:54;;;;;;;27.52;16.42;;;4.50;99.90;;;;;;5051771;28;20056;-89
2023/01/31 07:29:20;;;;;;;33.20;17.83;;;5.00;99.90;;;;;;5051951;28;20044;-89
2023/01/31 07:31:46;;;;;;;47.00;25.58;;;4.60;99.90;;;;;;5051505;28;20479;-89
2023/01/31 07:34:11;;;;;;;54.45;30.80;;;4.90;99.90;;;;;;5051138;28;20025;-89
2023/01/31 07:36:37;;;;;;;45.22;27.27;;;4.80;99.90;;;;;;5051229;28;20029;-89
2023/01/31 07:39:03;;;;;;;47.05;27.40;;;5.00;99.90;;;;;;5051815;28;20476;-88
2023/01/31 07:41:28;;;;;;;42.78;25.90;;;4.80;99.90;;;;;;5033319;28;20029;-89
2023/01/31 07:43:54;;;;;;;27.63;15.82;;;4.70;99.90;;;;;;5035536;28;20025;-89
2023/01/31 07:46:19;;;;;;;27.75;15.90;;;4.80;99.90;;;;;;5053915;28;20043;-85
2023/01/31 07:48:45;;;;;;;23.10;14.13;;;5.00;99.90;;;;;;5055179;28;20473;-87
2023/01/31 07:51:11;;;;;;;90.28;33.30;;;5.20;99.90;;;;;;5035888;28;20131;-88
2023/01/31 07:53:40;;;;;;;50.15;24.13;;;5.40;99.90;;;;;;5036332;28;20121;-87
2023/01/31 07:56:06;;;;;;;21.83;14.30;;;5.60;99.90;;;;;;5054050;28;20087;-89
2023/01/31 07:58:34;;;;;;;24.30;13.68;;;5.10;99.90;;;;;;5054775;28;20021;-88
2023/01/31 08:03:44;;;;;;;19.73;13.23;;;5.60;99.90;;;;;;5055378;28;20044;-87
2023/01/31 08:06:11;;;;;;;19.27;13.80;;;6.00;99.90;;;;;;5036665;28;20029;-89
2023/01/31 08:08:38;;;;;;;24.80;12.52;;;6.40;99.90;;;;;;5055060;28;20431;-90
2023/01/31 08:11:04;;;;;;;16.50;11.60;;;6.70;99.90;;;;;;5032129;28;20417;-90
2023/01/31 08:13:31;;;;;;;17.02;11.63;;;7.20;99.90;;;;;;5042551;28;20021;-88
2023/01/31 08:15:56;;;;;;;16.23;11.88;;;7.90;99.90;;;;;;5034673;28;20033;-91
2023/01/31 08:18:24;;;;;;;16.58;11.45;;;8.20;99.90;;;;;;5049043;28;20504;-90
2023/01/31 08:20:49;;;;;;;23.48;17.42;;;8.40;99.90;;;;;;5036652;28;20491;-91
2023/01/31 08:23:15;;;;;;;19.15;14.30;;;8.80;99.90;;;;;;5054358;28;20021;-85
2023/01/31 08:25:41;;;;;;;18.85;12.70;;;9.60;99.90;;;;;;5053696;28;20021;-88
2023/01/31 08:28:06;;;;;;;41.15;29.20;;;10.10;99.90;;;;;;5054605;28;20473;-88
2023/01/31 08:30:32;;;;;;;51.80;38.38;;;8.90;99.90;;;;;;5036070;28;20026;-88
2023/01/31 08:32:58;;;;;;;34.67;25.38;;;7.30;99.90;;;;;;5053252;28;20076;-87
2023/01/31 08:35:25;;;;;;;16.92;12.50;;;7.00;99.90;;;;;;5053978;28;20025;-88
2023/01/31 08:37:51;;;;;;;30.50;22.33;;;7.00;99.90;;;;;;5054456;28;20049;-88
2023/01/31 08:40:17;;;;;;;38.03;26.38;;;7.30;99.90;;;;;;5054070;28;20031;-88
2023/01/31 08:42:43;;;;;;;32.83;22.52;;;8.20;99.90;;;;;;5036052;28;20115;-88
2023/01/31 08:45:09;;;;;;;14.13;10.48;;;7.80;99.90;;;;;;5053924;28;20021;-87
2023/01/31 08:47:36;;;;;;;22.48;18.10;;;7.30;99.90;;;;;;5036360;28;20441;-88
2023/01/31 08:50:02;;;;;;;21.25;15.20;;;7.10;99.90;;;;;;5052409;28;20037;-88
2023/01/31 08:52:28;;;;;;;21.95;14.02;;;6.90;99.90;;;;;;5035038;28;20040;-88
2023/01/31 08:54:53;;;;;;;20.92;11.90;;;6.90;99.90;;;;;;5051520;28;20033;-88
2023/01/31 08:57:19;;;;;;;18.48;10.45;;;7.00;99.90;;;;;;5051070;28;20025;-88
2023/01/31 08:59:45;;;;;;;15.02;10.98;;;7.20;99.90;;;;;;5053289;28;20112;-88
2023/01/31 09:02:11;;;;;;;16.15;10.88;;;8.00;99.90;;;;;;5052665;28;20111;-88
2023/01/31 09:04:36;;;;;;;16.92;11.85;;;9.30;99.90;;;;;;5053568;28;20060;-88
2023/01/31 09:07:03;;;;;;;20.00;13.27;;;12.60;99.90;;;;;;5035807;28;20028;-89
2023/01/31 09:09:29;;;;;;;16.05;12.75;;;13.00;99.90;;;;;;5035056;28;20032;-88
2023/01/31 09:11:54;;;;;;;16.50;12.88;;;15.60;99.90;;;;;;5035700;28;20025;-89
2023/01/31 09:14:20;;;;;;;11.57;9.20;;;17.80;99.90;;;;;;5053315;28;20155;-89
2023/01/31 09:16:46;;;;;;;17.15;9.60;;;17.70;99.90;;;;;;5035046;28;20025;-88
2023/01/31 09:19:11;;;;;;;10.32;8.65;;;17.80;99.90;;;;;;5052522;28;20024;-86
2023/01/31 09:21:37;;;;;;;14.85;9.73;;;17.60;99.90;;;;;;5052281;28;20489;-89
2023/01/31 09:24:03;;;;;;;15.02;9.60;;;19.50;99.90;;;;;;5034278;28;20029;-88
2023/01/31 09:26:30;;;;;;;10.90;9.10;;;20.70;99.90;;;;;;5052627;28;20056;-88
2023/01/31 09:28:57;;;;;;;11.32;9.65;;;17.70;99.90;;;;;;5053342;28;20028;-88
2023/01/31 09:31:23;;;;;;;14.25;10.10;;;14.40;99.90;;;;;;5034391;28;20037;-88
2023/01/31 09:33:49;;;;;;;11.93;10.23;;;13.50;99.90;;;;;;5052117;28;20052;-88
2023/01/31 09:36:17;;;;;;;11.75;9.05;;;14.60;99.90;;;;;;5052846;28;20112;-88
2023/01/31 09:38:43;;;;;;;9.75;8.75;;;13.50;99.90;;;;;;5052237;28;20057;-88
2023/01/31 09:41:25;;;;;;;12.02;9.73;;;12.20;99.90;;;;;;5052570;28;20104;-88
2023/01/31 09:44:03;;;;;;;11.43;9.52;;;12.40;99.90;;;;;;5052027;28;20021;-89
2023/01/31 09:46:35;;;;;;;11.75;8.65;;;12.70;99.90;;;;;;5034620;28;20439;-88
2023/01/31 09:49:04;;;;;;;12.07;9.02;;;17.70;99.90;;;;;;5025773;28;20109;-87
2023/01/31 09:51:33;;;;;;;13.57;9.38;;;19.60;99.90;;;;;;5032430;28;20041;-88
2023/01/31 09:54:01;;;;;;;11.77;9.68;;;21.40;99.90;;;;;;5053751;28;20048;-87
2023/01/31 09:56:59;;;;;;;13.73;9.88;;;22.70;99.90;;;;;;5052603;28;20055;-87
2023/01/31 09:59:37;;;;;;;13.18;9.98;;;22.70;99.90;;;;;;5052388;28;20020;-85
2023/01/31 10:02:41;;;;;;;11.48;10.25;;;21.20;99.90;;;;;;5052026;28;20025;-86
2023/01/31 10:05:28;;;;;;;10.82;9.57;;;19.00;99.90;;;;;;5050918;28;20593;-86
2023/01/31 10:08:00;;;;;;;10.55;9.45;;;19.10;99.90;;;;;;5032360;28;20116;-86
2023/01/31 10:11:12;;;;;;;11.18;9.38;;;21.40;99.90;;;;;;5036647;28;20520;-87
2023/01/31 10:13:50;;;;;;;12.98;9.32;;;21.70;99.90;;;;;;5038214;28;20475;-87
2023/01/31 10:16:48;;;;;;;11.98;9.77;;;22.30;99.90;;;;;;5017667;28;20056;-88
2023/01/31 10:19:23;;;;;;;11.82;9.65;;;23.40;99.90;;;;;;5051033;28;20511;-90
2023/01/31 10:21:56;;;;;;;11.27;9.65;;;23.40;99.90;;;;;;5052244;28;20477;-89
2023/01/31 10:24:32;;;;;;;16.55;10.60;;;24.40;99.90;;;;;;5051946;28;20031;-89
2023/01/31 10:27:06;;;;;;;14.30;9.77;;;23.40;99.90;;;;;;5052181;28;20065;-89
2023/01/31 10:29:42;;;;;;;14.68;9.45;;;22.40;99.90;;;;;;5033140;28;20040;-89
2023/01/31 10:32:20;;;;;;;8.23;6.53;;;24.70;99.90;;;;;;5051808;28;20080;-88
2023/01/31 10:34:59;;;;;;;10.05;8.30;;;25.80;99.90;;;;;;5050212;28;20056;-88
2023/01/31 10:37:45;;;;;;;8.23;7.43;;;26.20;99.90;;;;;;5051916;28;20029;-88
2023/01/31 10:40:41;;;;;;;6.55;5.70;;;27.50;99.90;;;;;;5050925;28;20057;-87
2023/01/31 10:43:51;;;;;;;7.38;6.68;;;27.50;99.90;;;;;;5051864;28;20036;-88
2023/01/31 10:46:16;;;;;;;7.30;6.00;;;27.20;99.90;;;;;;5023265;28;20084;-89
2023/01/31 10:48:45;;;;;;;7.15;6.45;;;25.70;99.90;;;;;;5035633;28;20033;-88
2023/01/31 10:51:34;;;;;;;7.28;6.57;;;26.10;99.90;;;;;;5051596;28;20037;-86
2023/01/31 10:54:14;;;;;;;7.63;6.80;;;26.20;99.90;;;;;;5051222;28;20025;-87
2023/01/31 10:56:48;;;;;;;7.97;7.18;;;26.80;99.90;;;;;;5051745;28;20441;-87
2023/01/31 10:59:30;;;;;;;9.65;7.43;;;27.20;99.90;;;;;;5051072;28;20064;-89
2023/01/31 11:02:00;;;;;;;8.70;6.60;;;28.40;99.90;;;;;;5050244;28;20040;-95
2023/01/31 11:04:41;;;;;;;7.70;6.90;;;28.10;99.90;;;;;;5053840;28;20029;-90
2023/01/31 11:07:09;;;;;;;6.20;5.60;;;28.20;99.90;;;;;;5052424;28;20579;-91
2023/01/31 11:09:39;;;;;;;7.13;6.40;;;28.30;99.90;;;;;;5052267;28;20033;-90
2023/01/31 11:12:07;;;;;;;7.15;6.43;;;28.50;99.90;;;;;;5051986;28;20065;-94
2023/01/31 11:14:34;;;;;;;8.88;7.93;;;28.10;99.90;;;;;;5052149;28;20078;-91
2023/01/31 11:17:05;;;;;;;8.23;7.35;;;28.50;99.90;;;;;;5035810;28;20025;-95
2023/01/31 11:19:45;;;;;;;6.60;5.90;;;27.40;99.90;;;;;;5057180;28;20163;-90
2023/01/31 11:22:29;;;;;;;6.80;6.10;;;28.00;99.90;;;;;;5055149;28;20057;-89
2023/01/31 11:24:57;;;;;;;52.70;47.75;;;28.00;99.90;;;;;;5056337;28;20021;-90
2023/01/31 11:27:41;;;;;;;7.30;6.60;;;27.70;99.90;;;;;;5035037;28;20030;-89
2023/01/31 11:30:27;;;;;;;8.73;7.93;;;27.70;99.90;;;;;;5037991;28;20517;-89
2023/01/31 11:32:53;;;;;;;9.90;8.90;;;27.20;99.90;;;;;;5017935;28;20073;-90
2023/01/31 11:35:18;;;;;;;8.73;7.93;;;27.20;99.90;;;;;;5021952;28;20059;-88
2023/01/31 11:38:22;;;;;;;8.65;6.30;;;28.00;99.90;;;;;;5055445;28;20029;-90
2023/01/31 11:40:48;;;;;;;6.00;5.40;;;27.90;99.90;;;;;;5034161;28;20071;-92
2023/01/31 11:43:19;;;;;;;5.40;4.78;;;27.70;99.90;;;;;;5038266;28;20017;-91
2023/01/31 11:45:53;;;;;;;5.80;4.80;;;28.10;99.90;;;;;;5037472;28;20127;-92
2023/01/31 11:48:35;;;;;;;5.35;4.85;;;27.80;99.90;;;;;;5038061;28;20108;-93
2023/01/31 11:51:02;;;;;;;6.10;4.75;;;27.60;99.90;;;;;;5056853;28;20056;-92
2023/01/31 11:53:45;;;;;;;6.68;5.32;;;26.90;99.90;;;;;;5058013;28;20079;-92
2023/01/31 11:56:23;;;;;;;5.35;4.85;;;28.10;99.90;;;;;;5042186;28;20033;-93
2023/01/31 11:58:53;;;;;;;7.20;6.00;;;28.00;99.90;;;;;;5037091;28;20025;-91
2023/01/31 12:01:21;;;;;;;6.15;5.47;;;27.60;99.90;;;;;;5054876;28;20064;-85
2023/01/31 12:03:52;;;;;;;7.10;6.03;;;27.40;99.90;;;;;;5054196;28;20388;-86
2023/01/31 12:06:26;;;;;;;6.30;5.40;;;26.70;99.90;;;;;;5052941;28;20138;-87
2023/01/31 12:08:57;;;;;;;5.68;5.18;;;26.50;99.90;;;;;;5054757;28;20385;-89
2023/01/31 12:11:30;;;;;;;6.20;5.60;;;26.30;99.90;;;;;;5053655;28;20032;-87
2023/01/31 12:14:15;;;;;;;9.35;6.10;;;26.40;99.90;;;;;;5053006;28;20021;-87
2023/01/31 12:16:42;;;;;;;6.72;5.68;;;26.20;99.90;;;;;;5052474;28;20013;-87
2023/01/31 12:19:11;;;;;;;7.00;6.30;;;26.10;99.90;;;;;;5035598;28;20124;-87
2023/01/31 12:22:09;;;;;;;6.03;5.53;;;25.80;99.90;;;;;;5053907;28;20029;-87
2023/01/31 12:24:43;;;;;;;6.25;5.50;;;25.60;99.90;;;;;;5053785;28;20049;-87
2023/01/31 12:27:27;;;;;;;43.38;36.20;;;25.10;99.90;;;;;;5051137;28;20087;-88
2023/01/31 12:30:38;;;;;;;133.98;79.13;;;23.90;99.90;;;;;;5053945;28;20493;-88
2023/01/31 12:33:24;;;;;;;89.10;55.75;;;24.60;99.90;;;;;;4991891;28;20045;-88
2023/01/31 12:36:30;;;;;;;12.43;9.30;;;24.30;99.90;;;;;;4991979;28;20109;-87
2023/01/31 12:39:22;;;;;;;33.22;25.65;;;24.10;99.90;;;;;;4964342;28;20042;-88
2023/01/31 12:42:16;;;;;;;29.20;23.58;;;23.80;99.90;;;;;;4972738;28;20581;-88
2023/01/31 12:45:20;;;;;;;57.97;43.38;;;23.10;99.90;;;;;;4896315;29;20047;-88
2023/01/31 12:48:32;;;;;;;20.33;17.40;;;23.00;99.90;;;;;;4891495;29;20589;-89
2023/01/31 12:51:10;;;;;;;12.13;10.43;;;23.20;99.90;;;;;;4867094;29;20541;-87
2023/01/31 12:53:59;;;;;;;8.00;7.20;;;22.80;99.90;;;;;;4875584;29;20064;-87
2023/01/31 12:56:45;;;;;;;7.70;7.00;;;23.10;99.90;;;;;;4873906;29;20533;-88
2023/01/31 12:59:29;;;;;;;9.40;8.50;;;22.50;99.90;;;;;;4878544;29;20037;-88
2023/01/31 13:02:06;;;;;;;8.75;7.90;;;21.70;99.90;;;;;;4877532;29;20057;-88